Muir Army Air Field (Fort Indiantown Gap) Airport
KMUI : rendu visible

Aérodrome :











RETROUVEZ-NOUS SUR...

 
LOGIN :

S'inscrire | Disclaimer

   EN    FR    IT 

 









Légende :    VFR   VFR Marginal   IFR   IFR Intensif   IFR Très Intensif
Visi : 
Plafond : 
>= 8 km
>= 3000ft
5 à 8 km
1000 à 3000 ft
1500m à 5 km
500 à 1000 ft
800 à 1500m
200 à 500 ft
< 800m
< 200 ft
Symboles :   Orages  Brouillard  Fortes neiges  Fortes précipitations  Vent > 20 kt






- Altitude de l'aérodrome : 488 ft


KMUI - Muir Army Air Field (Fort Indiantown Gap)

DERNIER METAR :
  • 241456Z 00000KT 10SM BKN250 07/M10 A3005 RMK AO2A SLP182 T00681096 50005

METARs EXPIRÉS :
  • 241356Z 00000KT 10SM SCT250 03/M06 A3006 RMK AO2A SLP186 T00271057
  • 241256Z 00000KT 10SM FEW250 M01/M05 A3005 RMK AO2A SLP184 T10111055

TAF TAF KMUI
Valide du 24 à 11h jusqu'au 25 à 17h UTC


241100Z 2411/2517 VRB06KT 9999 SKC QNH2999INS
BECMG 2414/2415 18009KT 9999 SCT050 QNH2987INS
BECMG 2511/2512 09006KT 9000 -RA OVC005 620809 QNH2985INS TX12/2420Z TNM04/2411Z



MET'MAP, la Météo Aéronautique d'un coup d'oeil ! - Copyright ORBIFLY Décembre 2007 - Disclaimer

ORBIFLY MET'MAP TEAM :

Programmation & Développement : Alexandra Zaïnal
Sur une idée originale de : Baudouin d'Aumeries
Assistance à la programmation : Marc-Olivier Méhu
Soutien technique & logistique : Manuel Goepfert

Contact : metmap@orbifly.com




SOURCES & CREDITS :

   NOAA       Earth
Advisory